Time;durP1;ratioP1;P1;durP2;ratioP2;P2;SDS_P1;SDS_P2;PMS_P1;PMS_P2;Temp;Humidity;BMP_temperature;BMP_pressure;BME280_temperature;BME280_humidity;BME280_pressure;Samples;Min_cycle;Max_cycle;Signal;HPM_P1;HPM_P2
2021/06/13 00:00:17;;;;;;;;;35.25;33.00;;;;;20.17;80.20;100750.13;5055012;28;8848;-74
2021/06/13 00:03:12;;;;;;;;;32.00;30.75;;;;;20.21;79.14;100758.56;5055320;28;9574;-74
2021/06/13 00:06:08;;;;;;;;;33.25;30.75;;;;;20.31;79.08;100754.97;5054767;28;8820;-75
2021/06/13 00:09:05;;;;;;;;;32.00;30.75;;;;;20.23;79.42;100751.31;5054927;28;8858;-74
2021/06/13 00:12:00;;;;;;;;;37.00;34.00;;;;;20.15;79.53;100755.31;5056380;28;8912;-74
2021/06/13 00:14:56;;;;;;;;;34.50;31.50;;;;;20.14;80.00;100750.91;5054539;28;8852;-74
2021/06/13 00:17:53;;;;;;;;;34.00;32.75;;;;;20.06;80.02;100740.84;5054951;28;8865;-74
2021/06/13 00:20:51;;;;;;;;;33.50;31.50;;;;;20.11;79.70;100737.66;5054759;28;8860;-74
2021/06/13 00:23:46;;;;;;;;;31.50;30.75;;;;;20.13;78.64;100729.63;5054211;28;8840;-74
2021/06/13 00:26:42;;;;;;;;;33.50;30.50;;;;;19.99;78.83;100736.00;5041474;28;8851;-74
2021/06/13 00:29:38;;;;;;;;;33.00;32.00;;;;;19.80;79.98;100732.69;5042886;28;8852;-74
2021/06/13 00:32:33;;;;;;;;;37.25;33.25;;;;;19.92;79.62;100733.16;5054644;28;8921;-74
2021/06/13 00:35:29;;;;;;;;;23.00;23.00;;;;;19.90;79.91;100731.94;5040888;28;8844;-74
2021/06/13 00:38:25;;;;;;;;;35.50;33.75;;;;;19.81;80.29;100734.31;5054358;28;9596;-74
2021/06/13 00:41:23;;;;;;;;;23.25;23.00;;;;;19.74;80.75;100725.84;5054201;28;9573;-74
2021/06/13 00:44:18;;;;;;;;;35.50;31.75;;;;;19.90;79.53;100726.31;5040502;28;8824;-74
2021/06/13 00:47:14;;;;;;;;;32.50;31.50;;;;;20.12;80.58;100725.22;5054259;28;8866;-74
2021/06/13 00:50:14;;;;;;;;;28.75;25.75;;;;;20.39;78.68;100736.13;5054085;28;8836;-74
2021/06/13 00:53:10;;;;;;;;;33.00;30.00;;;;;20.24;77.90;100738.94;5040075;28;9654;-74
2021/06/13 00:56:06;;;;;;;;;32.25;31.25;;;;;20.07;78.25;100736.81;5054048;28;8871;-75
2021/06/13 00:59:02;;;;;;;;;35.75;32.00;;;;;20.17;77.95;100738.91;5055457;28;8871;-74
2021/06/13 01:01:57;;;;;;;;;31.75;31.00;;;;;20.03;78.36;100730.41;5053902;28;8844;-74
2021/06/13 01:04:53;;;;;;;;;26.25;26.25;;;;;19.89;79.29;100730.34;5053704;28;8836;-74
2021/06/13 01:08:11;;;;;;;;;29.50;29.50;;;;;19.83;79.08;100727.09;5053870;28;8889;-74
2021/06/13 01:11:23;;;;;;;;;29.50;29.25;;;;;19.94;79.21;100724.34;5053924;28;8851;-74
2021/06/13 01:14:38;;;;;;;;;30.00;29.75;;;;;19.95;78.74;100723.97;5053732;28;8911;-74
2021/06/13 01:17:43;;;;;;;;;31.00;29.75;;;;;19.86;78.99;100722.69;5053613;28;8831;-74
2021/06/13 01:21:06;;;;;;;;;29.00;29.00;;;;;19.77;79.09;100725.84;5040267;28;8891;-74
2021/06/13 01:24:30;;;;;;;;;30.75;30.50;;;;;19.91;79.63;100717.50;5054828;28;8870;-74
2021/06/13 01:27:37;;;;;;;;;24.75;24.75;;;;;19.93;78.70;100715.09;5055215;28;8959;-74
2021/06/13 01:30:33;;;;;;;;;21.75;21.75;;;;;19.85;78.17;100707.06;5053317;28;8844;-74
2021/06/13 01:33:31;;;;;;;;;26.50;26.50;;;;;19.82;77.99;100705.84;5039989;28;8857;-74
2021/06/13 01:36:28;;;;;;;;;24.50;24.50;;;;;19.97;77.33;100712.34;5052803;28;8827;-74
2021/06/13 01:39:27;;;;;;;;;25.50;25.50;;;;;19.85;77.75;100712.66;5053218;28;8844;-74
2021/06/13 01:42:25;;;;;;;;;24.75;24.25;;;;;19.86;77.45;100706.69;5053476;28;8832;-74
2021/06/13 01:45:25;;;;;;;;;24.75;24.75;;;;;19.69;78.04;100710.97;5052895;28;8970;-74
2021/06/13 01:48:21;;;;;;;;;25.00;25.00;;;;;19.92;78.66;100707.88;5053220;28;8836;-74
2021/06/13 01:51:18;;;;;;;;;24.00;24.00;;;;;19.67;78.94;100719.00;5052797;28;8887;-74
2021/06/13 01:54:16;;;;;;;;;22.50;22.50;;;;;19.69;79.07;100716.59;5053049;28;8848;-74
2021/06/13 01:57:12;;;;;;;;;27.50;27.50;;;;;19.75;78.64;100721.84;5052828;28;9573;-74
2021/06/13 02:00:10;;;;;;;;;27.75;26.75;;;;;19.68;78.98;100726.22;5052676;28;8867;-74
2021/06/13 02:03:08;;;;;;;;;29.25;28.25;;;;;19.84;78.94;100716.66;5052638;28;9033;-74
2021/06/13 02:06:04;;;;;;;;;28.75;28.50;;;;;19.68;78.98;100733.81;5039207;28;8854;-74
2021/06/13 02:09:04;;;;;;;;;26.50;26.50;;;;;19.63;79.84;100728.56;5052705;28;8855;-74
2021/06/13 02:12:03;;;;;;;;;29.33;28.67;;;;;19.58;80.02;100728.97;5051392;28;8831;-74
2021/06/13 02:15:00;;;;;;;;;34.00;32.75;;;;;19.81;79.46;100728.69;5032639;28;9631;-74
2021/06/13 02:17:57;;;;;;;;;35.50;33.50;;;;;19.75;79.03;100728.25;5032444;28;8854;-74
2021/06/13 02:20:56;;;;;;;;;45.67;39.00;;;;;19.73;78.53;100733.47;5032336;28;8911;-74
2021/06/13 02:23:53;;;;;;;;;35.50;33.50;;;;;19.88;79.77;100729.53;5032215;28;8923;-74
2021/06/13 02:26:49;;;;;;;;;34.25;33.00;;;;;20.26;79.42;100735.72;5019176;28;8908;-74
2021/06/13 02:29:46;;;;;;;;;37.00;33.50;;;;;20.54;78.06;100730.19;5032383;28;8861;-74
2021/06/13 02:32:43;;;;;;;;;32.50;30.75;;;;;20.53;77.88;100730.59;5033661;28;8852;-74
2021/06/13 02:35:41;;;;;;;;;38.25;35.00;;;;;20.49;76.75;100722.16;5018699;28;8920;-74
2021/06/13 02:38:37;;;;;;;;;34.50;32.75;;;;;20.58;76.39;100720.97;5019196;28;8842;-74
2021/06/13 02:41:33;;;;;;;;;36.00;32.50;;;;;20.57;76.70;100731.41;5032060;28;8846;-74
2021/06/13 02:44:30;;;;;;;;;30.25;29.75;;;;;20.35;77.17;100724.91;5018847;28;8846;-74
2021/06/13 02:47:25;;;;;;;;;34.00;29.75;;;;;20.42;76.75;100735.34;5018648;28;8872;-74
2021/06/13 02:50:23;;;;;;;;;27.00;27.00;;;;;20.32;77.48;100734.13;5032182;28;8842;-74
2021/06/13 02:53:42;;;;;;;;;24.00;24.00;;;;;20.32;78.44;100727.69;5031724;28;8846;-73
2021/06/13 02:56:54;;;;;;;;;23.50;23.50;;;;;20.47;78.23;100727.38;5031945;28;9634;-74
2021/06/13 02:59:53;;;;;;;;;23.50;23.50;;;;;20.51;77.70;100733.81;5033247;28;8837;-74
2021/06/13 03:02:51;;;;;;;;;26.50;26.00;;;;;20.50;78.18;100734.22;5031943;28;8903;-74
2021/06/13 03:05:48;;;;;;;;;22.75;22.75;;;;;20.60;78.07;100730.59;5019995;28;8868;-74
2021/06/13 03:08:44;;;;;;;;;24.25;24.00;;;;;20.68;78.01;100720.19;5031749;28;8838;-74
2021/06/13 03:11:40;;;;;;;;;26.00;26.00;;;;;20.78;77.60;100725.84;5032080;28;8869;-74
2021/06/13 03:14:39;;;;;;;;;27.75;27.00;;;;;20.86;77.53;100729.47;5053180;28;8867;-74
2021/06/13 03:17:40;;;;;;;;;22.25;22.25;;;;;20.96;77.69;100725.84;5058399;28;8962;-74
2021/06/13 03:20:37;;;;;;;;;23.50;22.75;;;;;21.09;77.32;100721.44;5058274;28;8958;-74
2021/06/13 03:23:34;;;;;;;;;25.25;25.25;;;;;21.40;78.13;100729.50;5058001;28;8954;-74
2021/06/13 03:26:35;;;;;;;;;25.50;25.50;;;;;21.56;77.10;100730.66;5058442;28;8883;-74
2021/06/13 03:29:42;;;;;;;;;25.75;25.75;;;;;21.58;75.11;100733.84;5058316;28;8847;-74
2021/06/13 03:32:37;;;;;;;;;21.75;21.75;;;;;21.89;76.77;100742.63;5044744;28;8936;-74
2021/06/13 03:35:37;;;;;;;;;20.75;20.75;;;;;21.84;74.91;100743.03;5044139;28;8843;-74
2021/06/13 03:38:39;;;;;;;;;24.25;24.25;;;;;21.74;74.39;100735.44;5038299;28;8865;-73
2021/06/13 03:41:35;;;;;;;;;23.75;23.75;;;;;22.06;75.44;100724.06;5063380;28;8879;-74
2021/06/13 03:44:32;;;;;;;;;22.25;22.25;;;;;22.17;73.84;100722.84;5072092;28;8844;-73
2021/06/13 03:47:30;;;;;;;;;26.50;26.50;;;;;22.16;73.20;100726.88;5077484;28;8841;-74
2021/06/13 03:50:27;;;;;;;;;28.50;28.50;;;;;22.13;72.84;100726.88;5064775;28;8919;-75
2021/06/13 03:53:22;;;;;;;;;24.25;24.25;;;;;22.24;72.52;100730.47;5078497;28;8863;-75
2021/06/13 03:56:23;;;;;;;;;18.75;18.75;;;;;22.53;73.74;100730.28;5064257;28;8849;-74
2021/06/13 03:59:24;;;;;;;;;17.00;16.50;;;;;22.80;72.45;100725.69;5077967;28;8870;-75
2021/06/13 04:02:21;;;;;;;;;20.25;20.25;;;;;22.64;70.84;100725.41;5066368;28;8863;-74
2021/06/13 04:05:20;;;;;;;;;18.00;18.00;;;;;22.72;71.18;100729.78;5058435;28;8844;-75
2021/06/13 04:08:16;;;;;;;;;17.75;17.75;;;;;22.64;71.69;100720.56;5035465;28;8862;-75
2021/06/13 04:11:13;;;;;;;;;14.50;14.50;;;;;22.72;70.88;100713.66;5034486;28;8847;-74
2021/06/13 04:14:12;;;;;;;;;12.75;12.75;;;;;22.67;72.12;100721.75;5047704;28;8851;-75
2021/06/13 04:17:08;;;;;;;;;15.25;14.25;;;;;22.67;70.99;100724.56;5056715;28;8862;-75
2021/06/13 04:20:06;;;;;;;;;13.00;13.00;;;;;22.65;71.10;100727.81;5058243;28;8833;-74
2021/06/13 04:23:04;;;;;;;;;14.00;14.00;;;;;22.80;69.80;100731.34;5058336;28;8813;-75
2021/06/13 04:26:00;;;;;;;;;20.75;20.75;;;;;23.14;71.30;100737.13;5056753;28;8915;-75
2021/06/13 04:28:59;;;;;;;;;13.00;13.00;;;;;23.29;69.83;100735.78;5054661;28;9583;-75
2021/06/13 04:31:54;;;;;;;;;14.75;14.75;;;;;23.30;69.59;100736.59;5036274;28;8868;-74
2021/06/13 04:34:50;;;;;;;;;16.25;16.25;;;;;23.26;70.02;100733.00;5036350;28;8992;-75
2021/06/13 04:37:46;;;;;;;;;12.60;12.60;;;;;23.35;69.53;100738.97;5022804;28;8842;-73
2021/06/13 04:40:45;;;;;;;;;13.00;13.00;;;;;23.20;69.27;100740.31;5029573;28;8967;-74
2021/06/13 04:43:42;;;;;;;;;13.80;13.80;;;;;23.03;69.72;100740.06;5054250;28;8955;-73
2021/06/13 04:46:38;;;;;;;;;14.25;13.75;;;;;23.09;70.97;100740.41;5054172;28;8839;-76
2021/06/13 04:49:33;;;;;;;;;9.50;9.50;;;;;23.25;71.41;100743.50;5054535;28;8835;-75
2021/06/13 04:52:31;;;;;;;;;12.50;12.50;;;;;23.50;71.15;100736.81;5054066;28;8962;-75
2021/06/13 04:55:41;;;;;;;;;13.80;13.80;;;;;23.24;71.00;100738.28;5053889;28;8855;-75
2021/06/13 04:58:37;;;;;;;;;11.60;11.60;;;;;23.16;71.58;100733.91;5053960;28;8940;-74
2021/06/13 05:01:33;;;;;;;;;14.40;14.40;;;;;23.35;71.06;100738.16;5053739;28;8840;-73
2021/06/13 05:04:29;;;;;;;;;13.50;13.50;;;;;23.44;71.58;100750.56;5054181;28;8826;-74
2021/06/13 05:07:25;;;;;;;;;12.60;12.60;;;;;23.50;72.01;100740.44;5047376;28;9595;-73
2021/06/13 05:10:21;;;;;;;;;13.80;13.80;;;;;23.67;70.70;100741.50;5056272;28;8865;-73
2021/06/13 05:13:18;;;;;;;;;10.40;10.40;;;;;23.39;71.10;100742.56;5078066;28;8863;-72
2021/06/13 05:16:13;;;;;;;;;13.40;12.80;;;;;23.76;70.35;100744.63;5054450;28;8849;-72
2021/06/13 05:19:09;;;;;;;;;11.80;11.80;;;;;23.94;68.60;100750.09;5054295;28;8850;-73
2021/06/13 05:22:06;;;;;;;;;10.20;10.20;;;;;24.17;68.30;100749.41;5065587;28;8961;-70
2021/06/13 05:25:02;;;;;;;;;13.20;13.20;;;;;23.85;69.30;100741.31;5053441;28;8959;-74
2021/06/13 05:27:59;;;;;;;;;10.20;10.20;;;;;24.18;69.43;100739.72;5054146;28;8836;-74
2021/06/13 05:30:55;;;;;;;;;14.00;14.00;;;;;24.21;68.94;100743.69;5053273;28;8847;-73
2021/06/13 05:33:52;;;;;;;;;12.40;12.40;;;;;24.37;67.51;100746.75;5052771;28;9570;-72
2021/06/13 05:36:48;;;;;;;;;11.00;11.00;;;;;24.48;67.91;100752.28;5049221;28;8854;-70
2021/06/13 05:39:43;;;;;;;;;11.80;11.40;;;;;24.30;69.17;100743.97;5053617;28;8860;-72
2021/06/13 05:42:39;;;;;;;;;12.00;12.00;;;;;24.66;68.73;100738.69;5052177;28;8838;-72
2021/06/13 05:45:36;;;;;;;;;14.60;14.60;;;;;24.49;69.55;100751.03;5052059;28;9821;-72
2021/06/13 05:48:33;;;;;;;;;8.00;8.00;;;;;24.54;70.41;100751.38;5051730;28;8818;-72
2021/06/13 05:51:28;;;;;;;;;11.00;11.00;;;;;24.92;68.69;100748.38;5052604;28;8822;-70
2021/06/13 05:54:24;;;;;;;;;9.40;9.40;;;;;24.65;69.31;100752.00;5052944;28;8835;-71
2021/06/13 05:57:19;;;;;;;;;11.40;11.40;;;;;24.48;70.60;100747.41;5058561;28;8846;-72
2021/06/13 06:00:22;;;;;;;;;15.20;15.20;;;;;24.68;69.60;100741.88;5035716;28;8821;-73
2021/06/13 06:03:05;;;;;;;;;10.60;10.60;;;;;24.88;68.20;100737.13;5051686;28;8837;-71
2021/06/13 06:05:34;;;;;;;;;10.80;10.80;;;;;24.84;67.80;100738.41;5053742;28;8879;-73
2021/06/13 06:08:03;;;;;;;;;10.60;10.60;;;;;24.98;66.05;100741.00;5053452;28;8840;-72
2021/06/13 06:10:58;;;;;;;;;12.60;12.60;;;;;24.96;65.15;100740.63;5052395;28;8827;-72
2021/06/13 06:13:34;;;;;;;;;10.20;10.20;;;;;25.15;64.30;100739.97;5036859;28;8863;-71
2021/06/13 06:16:30;;;;;;;;;10.60;10.00;;;;;25.47;62.79;100738.59;5038890;28;8843;-72
2021/06/13 06:19:25;;;;;;;;;10.20;10.20;;;;;25.38;62.12;100738.34;5038313;28;8827;-72
2021/06/13 06:22:21;;;;;;;;;8.40;8.40;;;;;25.15;61.74;100737.13;5052110;28;8843;-72
2021/06/13 06:25:19;;;;;;;;;14.40;14.40;;;;;25.58;61.82;100741.22;5051962;28;8836;-72
2021/06/13 06:27:48;;;;;;;;;10.80;10.80;;;;;25.76;60.69;100742.53;5035239;28;8848;-72
2021/06/13 06:30:43;;;;;;;;;9.60;9.60;;;;;25.23;57.52;100734.97;5046767;28;8823;-71
2021/06/13 06:33:11;;;;;;;;;11.20;11.20;;;;;25.58;59.22;100741.22;5052151;28;8856;-72
2021/06/13 06:36:07;;;;;;;;;10.40;10.40;;;;;25.96;59.68;100744.56;5051626;28;8824;-72
2021/06/13 06:39:03;;;;;;;;;11.40;11.40;;;;;26.17;55.69;100740.50;5056937;28;8888;-72
2021/06/13 06:41:59;;;;;;;;;12.60;12.60;;;;;26.40;55.32;100740.44;5049742;28;8882;-72
2021/06/13 06:44:55;;;;;;;;;14.80;14.80;;;;;26.44;56.60;100737.50;5051718;28;8824;-73
2021/06/13 06:47:50;;;;;;;;;11.60;11.60;;;;;26.34;55.47;100740.13;5054002;28;8918;-72
2021/06/13 06:50:46;;;;;;;;;9.40;9.40;;;;;26.48;56.13;100741.06;5038349;28;8868;-72
2021/06/13 06:53:41;;;;;;;;;10.00;10.00;;;;;26.48;56.52;100735.41;5052235;28;8874;-72
2021/06/13 06:56:37;;;;;;;;;10.00;10.00;;;;;26.80;56.52;100732.63;5051686;28;8884;-72
2021/06/13 06:59:32;;;;;;;;;11.00;11.00;;;;;26.79;55.81;100733.84;5052020;28;8830;-72
2021/06/13 07:02:16;;;;;;;;;9.00;9.00;;;;;26.85;56.73;100734.16;5016498;28;9807;-72
2021/06/13 07:04:45;;;;;;;;;12.20;12.20;;;;;26.86;57.35;100732.91;5032969;28;8834;-72
2021/06/13 07:07:13;;;;;;;;;11.40;11.40;;;;;27.05;56.85;100732.03;5031614;28;9663;-72
2021/06/13 07:09:56;;;;;;;;;12.20;12.20;;;;;26.62;58.96;100735.09;5042969;28;8853;-71
2021/06/13 07:12:25;;;;;;;;;11.40;10.20;;;;;26.98;57.28;100731.38;5048284;28;8846;-72
2021/06/13 07:14:53;;;;;;;;;11.40;11.40;;;;;27.02;57.99;100737.78;5039689;28;8851;-73
2021/06/13 07:17:41;;;;;;;;;10.40;10.40;;;;;27.04;58.84;100735.31;5042719;28;8933;-73
2021/06/13 07:20:37;;;;;;;;;8.60;8.60;;;;;27.28;57.10;100738.75;5039862;28;8913;-73
2021/06/13 07:23:20;;;;;;;;;8.00;8.00;;;;;27.56;57.11;100737.22;5024301;28;8847;-72
2021/06/13 07:25:48;;;;;;;;;10.40;10.40;;;;;27.35;56.83;100735.75;5042706;28;8862;-71
2021/06/13 07:28:25;;;;;;;;;7.60;7.60;;;;;27.29;56.86;100737.53;5040799;28;8837;-71
2021/06/13 07:30:54;;;;;;;;;9.40;9.40;;;;;27.47;56.18;100742.75;5028787;28;8856;-73
2021/06/13 07:33:25;;;;;;;;;11.40;11.40;;;;;27.48;55.70;100742.31;5005051;28;8854;-73
2021/06/13 07:35:56;;;;;;;;;8.00;8.00;;;;;27.42;55.56;100739.19;5029020;28;8839;-73
2021/06/13 07:38:39;;;;;;;;;7.00;6.60;;;;;27.49;54.82;100732.53;5042566;28;8858;-73
2021/06/13 07:41:20;;;;;;;;;8.00;8.00;;;;;27.59;55.20;100734.28;5028274;28;8832;-73
2021/06/13 07:43:48;;;;;;;;;10.00;10.00;;;;;27.69;54.91;100735.28;5027447;28;8965;-73
2021/06/13 07:46:16;;;;;;;;;8.60;8.60;;;;;27.69;54.77;100735.28;5024860;28;8870;-73
2021/06/13 07:48:45;;;;;;;;;6.80;6.80;;;;;27.67;54.22;100732.06;5037044;28;8943;-73
2021/06/13 07:51:40;;;;;;;;;8.80;8.80;;;;;27.90;53.67;100734.66;5027341;28;8842;-73
2021/06/13 07:54:26;;;;;;;;;8.00;8.00;;;;;28.00;54.82;100732.78;5023529;28;8923;-72
2021/06/13 07:56:54;;;;;;;;;7.00;7.00;;;;;27.03;54.69;100730.84;5010795;28;8889;-72
2021/06/13 07:59:50;;;;;;;;;7.40;7.40;;;;;27.75;53.74;100744.03;5040016;28;8846;-71
2021/06/13 08:02:31;;;;;;;;;8.40;8.40;;;;;27.88;53.81;100736.38;5031107;28;8862;-74
2021/06/13 08:05:07;;;;;;;;;7.60;7.60;;;;;27.88;52.55;100725.78;5035636;28;8857;-73
2021/06/13 08:07:35;;;;;;;;;8.20;8.20;;;;;28.10;53.09;100728.81;5018662;28;8854;-73
2021/06/13 08:10:23;;;;;;;;;6.80;6.80;;;;;27.93;54.23;100730.94;5054653;28;8832;-74
2021/06/13 08:12:51;;;;;;;;;7.40;7.40;;;;;27.96;53.03;100729.25;5053358;28;8840;-73
2021/06/13 08:15:47;;;;;;;;;9.00;9.00;;;;;28.03;53.29;100726.19;5063346;28;8822;-70
2021/06/13 08:18:15;;;;;;;;;6.20;6.20;;;;;27.57;54.15;100719.72;5053030;28;8900;-71
2021/06/13 08:20:44;;;;;;;;;7.00;7.00;;;;;27.80;53.98;100726.44;5047854;28;8851;-72
2021/06/13 08:23:12;;;;;;;;;10.60;10.60;;;;;28.39;53.77;100723.13;5069318;28;8860;-73
2021/06/13 08:26:08;;;;;;;;;8.20;8.20;;;;;28.47;53.62;100723.69;5061765;28;8844;-72
2021/06/13 08:28:36;;;;;;;;;8.20;8.00;;;;;28.87;53.31;100723.25;5065441;28;9006;-72
2021/06/13 08:31:04;;;;;;;;;8.20;8.20;;;;;28.64;52.55;100735.75;5048924;28;8950;-71
2021/06/13 08:34:00;;;;;;;;;7.20;7.20;;;;;29.07;52.23;100718.94;5055289;28;8835;-72
2021/06/13 08:36:28;;;;;;;;;8.00;8.00;;;;;29.13;51.99;100706.94;5055478;28;8939;-72
2021/06/13 08:38:56;;;;;;;;;7.60;7.60;;;;;28.87;51.65;100723.25;5061151;28;8871;-72
2021/06/13 08:41:42;;;;;;;;;9.00;9.00;;;;;29.08;51.80;100722.56;5059066;28;8868;-73
2021/06/13 08:44:15;;;;;;;;;8.20;7.80;;;;;28.22;53.22;100728.06;5046737;28;8819;-70
2021/06/13 08:46:59;;;;;;;;;8.40;8.40;;;;;27.74;54.32;100722.56;5055967;28;8855;-71
2021/06/13 08:49:41;;;;;;;;;7.60;7.00;;;;;28.36;53.55;100721.16;5055220;28;8848;-72
2021/06/13 08:52:37;;;;;;;;;6.40;6.40;;;;;28.60;52.59;100715.97;5054812;28;8957;-72
2021/06/13 08:55:33;;;;;;;;;7.60;7.60;;;;;28.05;53.00;100720.06;5055050;28;8944;-72
2021/06/13 08:58:03;;;;;;;;;6.80;6.80;;;;;27.84;53.89;100722.28;5055163;28;8852;-72
2021/06/13 09:00:58;;;;;;;;;7.20;7.20;;;;;27.56;54.38;100718.16;5054006;28;8851;-72
2021/06/13 09:03:54;;;;;;;;;5.00;5.00;;;;;27.48;53.46;100724.47;5053524;28;8832;-72
2021/06/13 09:06:50;;;;;;;;;6.00;6.00;;;;;27.75;53.61;100713.59;5033421;28;8915;-71
2021/06/13 09:09:46;;;;;;;;;7.00;6.80;;;;;28.04;51.20;100715.63;5063547;28;9648;-71
2021/06/13 09:12:36;;;;;;;;;8.00;8.00;;;;;28.30;51.64;100700.25;5063018;28;8861;-71
2021/06/13 09:15:06;;;;;;;;;7.00;7.00;;;;;27.94;52.08;100701.28;5074303;28;8853;-72
2021/06/13 09:18:02;;;;;;;;;6.80;6.80;;;;;28.80;50.63;100699.44;5069874;28;8856;-72
2021/06/13 09:20:52;;;;;;;;;8.00;8.00;;;;;28.86;50.01;100693.19;5074714;28;8849;-72
2021/06/13 09:23:47;;;;;;;;;7.40;7.40;;;;;29.30;48.85;100689.25;5043073;28;8832;-72
2021/06/13 09:26:30;;;;;;;;;4.00;4.00;;;;;29.22;48.93;100695.66;5054885;28;8866;-72
2021/06/13 09:29:45;;;;;;;;;5.00;5.00;;;;;29.34;48.22;100694.81;5071304;28;8825;-73
2021/06/13 09:32:13;;;;;;;;;5.00;5.00;;;;;29.57;47.06;100691.56;5036570;28;8890;-72
2021/06/13 09:34:41;;;;;;;;;3.60;3.60;;;;;29.74;46.37;100686.47;5061933;28;8828;-72
2021/06/13 09:37:13;;;;;;;;;6.40;6.40;;;;;29.80;47.68;100681.78;5056832;28;8836;-71
2021/06/13 09:39:41;;;;;;;;;4.60;4.60;;;;;29.84;47.34;100684.50;5055352;28;8841;-72
2021/06/13 09:42:09;;;;;;;;;9.00;9.00;;;;;29.78;44.55;100672.91;5064543;28;8893;-70
2021/06/13 09:45:01;;;;;;;;;9.20;8.00;;;;;29.62;47.15;100667.41;5051349;28;8860;-71
2021/06/13 09:47:37;;;;;;;;;5.60;5.60;;;;;28.87;47.39;100672.00;5053356;28;8853;-72
2021/06/13 09:50:36;;;;;;;;;6.40;6.00;;;;;29.23;46.72;100668.78;5067754;28;8907;-72
2021/06/13 09:53:31;;;;;;;;;5.00;5.00;;;;;29.54;47.17;100666.88;5050869;28;8844;-73
2021/06/13 09:56:06;;;;;;;;;5.00;5.00;;;;;29.60;46.17;100658.53;5055778;28;9653;-72
2021/06/13 09:58:45;;;;;;;;;6.80;6.80;;;;;29.36;47.45;100663.81;5033634;28;10023;-73
2021/06/13 10:01:14;;;;;;;;;5.20;5.20;;;;;29.63;45.88;100649.81;5052503;28;8853;-72
2021/06/13 10:03:46;;;;;;;;;5.80;5.80;;;;;29.66;45.66;100656.66;5054532;28;8853;-73
2021/06/13 10:06:37;;;;;;;;;5.00;5.00;;;;;29.51;45.73;100653.53;5058430;28;8875;-72
2021/06/13 10:09:07;;;;;;;;;5.20;5.20;;;;;29.08;46.87;100652.19;5057077;28;8838;-74
2021/06/13 10:12:03;;;;;;;;;5.00;5.00;;;;;28.95;45.39;100650.63;5071827;28;9617;-72
2021/06/13 10:14:31;;;;;;;;;6.00;6.00;;;;;28.80;46.97;100648.22;5068508;28;8839;-72
2021/06/13 10:17:01;;;;;;;;;5.40;5.40;;;;;29.28;46.04;100651.09;5070437;28;9095;-72
2021/06/13 10:19:41;;;;;;;;;5.00;5.00;;;;;29.29;46.38;100644.94;5052342;28;8825;-72
2021/06/13 10:22:40;;;;;;;;;1.80;1.80;;;;;29.29;45.96;100644.13;5035958;28;8849;-71
2021/06/13 10:25:13;;;;;;;;;6.20;6.20;;;;;29.18;46.71;100641.66;5053193;28;8841;-72
2021/06/13 10:27:50;;;;;;;;;6.00;6.00;;;;;28.74;47.03;100637.88;5041363;28;8830;-73
2021/06/13 10:30:20;;;;;;;;;7.00;7.00;;;;;28.92;45.82;100640.97;5052710;28;8896;-72
2021/06/13 10:33:02;;;;;;;;;6.00;6.00;;;;;28.98;45.92;100644.00;5028986;28;8858;-73
2021/06/13 10:35:32;;;;;;;;;5.60;5.60;;;;;28.68;45.74;100636.88;5064633;28;8857;-71
2021/06/13 10:38:00;;;;;;;;;5.20;5.20;;;;;28.70;44.83;100635.16;5073149;28;8872;-72
2021/06/13 10:40:29;;;;;;;;;5.00;5.00;;;;;28.60;45.88;100638.34;5088501;28;8834;-72
2021/06/13 10:43:29;;;;;;;;;5.60;5.60;;;;;28.92;45.46;100632.41;5073297;28;8838;-73
2021/06/13 10:46:11;;;;;;;;;4.80;4.80;;;;;29.12;46.27;100637.81;5055670;28;8850;-73
2021/06/13 10:48:49;;;;;;;;;4.60;4.60;;;;;29.21;44.91;100634.25;5073117;28;8837;-73
2021/06/13 10:51:45;;;;;;;;;5.40;5.40;;;;;28.37;45.19;100640.31;5071089;28;8864;-72
2021/06/13 10:54:25;;;;;;;;;4.60;4.60;;;;;28.43;45.39;100632.78;5072894;28;8858;-73
2021/06/13 10:57:00;;;;;;;;;5.60;5.60;;;;;28.49;46.72;100628.13;5072955;28;8837;-73
2021/06/13 10:59:32;;;;;;;;;3.60;3.60;;;;;28.41;46.22;100623.91;5073013;28;8845;-72
2021/06/13 11:02:55;;;;;;;;;8.60;5.80;;;;;29.16;45.50;100629.16;5071867;28;8834;-73
2021/06/13 11:05:36;;;;;;;;;4.00;4.00;;;;;29.11;43.11;100621.19;5055123;28;8854;-73
2021/06/13 11:09:01;;;;;;;;;4.00;4.00;;;;;29.26;43.54;100628.75;5073454;28;8857;-72
2021/06/13 11:11:55;;;;;;;;;4.80;4.80;;;;;29.03;42.60;100624.28;5071184;28;8858;-72
2021/06/13 11:14:54;;;;;;;;;4.20;4.20;;;;;29.86;42.60;100622.13;5071823;28;8834;-71
2021/06/13 11:18:06;;;;;;;;;4.00;4.00;;;;;30.22;41.40;100627.25;5059789;28;8841;-72
2021/06/13 11:21:18;;;;;;;;;4.00;4.00;;;;;30.41;40.30;100626.06;5071689;28;8885;-72
2021/06/13 11:24:45;;;;;;;;;6.40;6.40;;;;;30.52;41.01;100627.66;5071639;28;8852;-73
2021/06/13 11:28:16;;;;;;;;;3.00;3.00;;;;;29.91;41.73;100624.38;5073257;28;8865;-73
2021/06/13 11:30:51;;;;;;;;;5.00;5.00;;;;;29.35;43.08;100630.88;5072844;28;8865;-72
2021/06/13 11:33:54;;;;;;;;;4.80;4.80;;;;;29.31;43.28;100635.94;5057978;28;8845;-73
2021/06/13 11:36:51;;;;;;;;;6.20;6.20;;;;;29.14;43.74;100620.25;5074054;28;8926;-73
2021/06/13 11:39:56;;;;;;;;;5.80;5.80;;;;;29.54;43.80;100629.03;5075455;28;8865;-72
2021/06/13 11:42:24;;;;;;;;;5.80;5.80;;;;;29.08;44.30;100626.56;5076411;28;8961;-72
2021/06/13 11:45:29;;;;;;;;;1.40;1.40;;;;;29.18;44.38;100623.78;5063055;28;8890;-72
2021/06/13 11:48:28;;;;;;;;;4.60;4.60;;;;;29.06;44.99;100617.69;5055292;28;8854;-71
2021/06/13 11:51:24;;;;;;;;;4.80;4.80;;;;;28.71;45.28;100621.72;5054915;28;8858;-71
2021/06/13 11:54:40;;;;;;;;;5.20;5.20;;;;;29.67;42.94;100621.19;5067336;28;9501;-71
2021/06/13 11:57:14;;;;;;;;;4.20;4.20;;;;;30.40;42.64;100626.53;5035127;28;8908;-73
2021/06/13 12:00:13;;;;;;;;;6.00;6.00;;;;;30.85;41.55;100619.41;5034956;28;8853;-71
2021/06/13 12:02:41;;;;;;;;;6.00;6.00;;;;;30.89;38.73;100614.31;5036474;28;8857;-74
2021/06/13 12:05:37;;;;;;;;;4.60;4.60;;;;;30.85;39.26;100611.63;5034272;28;8837;-75
2021/06/13 12:08:42;;;;;;;;;4.00;4.00;;;;;31.37;38.90;100603.28;5054898;28;8844;-73
2021/06/13 12:11:30;;;;;;;;;5.20;5.20;;;;;31.51;38.89;100617.69;5036574;28;8859;-73
2021/06/13 12:14:25;;;;;;;;;4.00;4.00;;;;;31.02;40.00;100620.69;5055709;28;8849;-74
2021/06/13 12:17:16;;;;;;;;;4.20;4.20;;;;;31.48;37.85;100615.00;5041938;28;8833;-74
2021/06/13 12:19:56;;;;;;;;;4.40;3.80;;;;;31.79;38.58;100609.09;5047716;28;8837;-74
2021/06/13 12:23:07;;;;;;;;;4.00;3.40;;;;;32.08;35.83;100600.75;5046789;28;8810;-77
2021/06/13 12:28:30;;;;;;;;;4.00;4.00;;;;;31.19;37.64;100601.97;5053837;28;8830;-72
2021/06/13 12:31:13;;;;;;;;;5.80;5.80;;;;;31.22;37.22;100597.41;5052766;28;8852;-71
2021/06/13 12:33:41;;;;;;;;;3.20;3.20;;;;;31.36;37.54;100591.03;5054002;28;8939;-71
2021/06/13 12:36:09;;;;;;;;;3.80;3.80;;;;;31.24;36.74;100587.09;5054159;28;8829;-71
2021/06/13 12:38:37;;;;;;;;;4.20;4.20;;;;;31.06;37.13;100589.91;5054210;28;8865;-71
2021/06/13 12:41:28;;;;;;;;;4.00;4.00;;;;;31.63;35.48;100587.34;5051574;28;8861;-71
2021/06/13 12:43:59;;;;;;;;;4.20;4.20;;;;;31.80;37.00;100580.03;5054810;28;8844;-72
2021/06/13 12:46:37;;;;;;;;;4.40;4.40;;;;;31.83;36.17;100580.38;5051959;28;8834;-72
2021/06/13 12:49:19;;;;;;;;;4.60;4.60;;;;;31.97;35.04;100576.78;5052576;28;8868;-72
2021/06/13 12:51:48;;;;;;;;;4.00;4.00;;;;;31.51;36.63;100579.75;5056143;28;8869;-71
2021/06/13 12:54:21;;;;;;;;;5.40;5.40;;;;;31.17;35.71;100572.28;5056393;28;8860;-71
2021/06/13 12:57:11;;;;;;;;;4.20;4.20;;;;;30.82;36.15;100566.09;5055558;28;8857;-72
2021/06/13 12:59:39;;;;;;;;;3.80;3.80;;;;;30.52;37.67;100562.84;5037520;28;8845;-72
2021/06/13 13:02:16;;;;;;;;;4.80;4.80;;;;;30.42;37.98;100559.16;5038790;28;8946;-72
2021/06/13 13:05:16;;;;;;;;;5.00;5.00;;;;;30.04;38.84;100558.69;5055030;28;8870;-72
2021/06/13 13:07:45;;;;;;;;;4.60;4.60;;;;;29.81;39.35;100555.09;5043607;28;9543;-71
2021/06/13 13:10:23;;;;;;;;;3.00;3.00;;;;;29.96;38.33;100552.47;5053275;28;8842;-71
2021/06/13 13:13:07;;;;;;;;;7.00;7.00;;;;;30.54;38.54;100548.91;5037454;28;8845;-73